Time;durP1;ratioP1;P1;durP2;ratioP2;P2;SDS_P1;SDS_P2;PMS_P1;PMS_P2;Temp;Humidity;BMP_temperature;BMP_pressure;BME280_temperature;BME280_humidity;BME280_pressure;Samples;Min_cycle;Max_cycle;Signal;HPM_P1;HPM_P2
2023/03/16 00:01:17;;;;;;;10.32;3.30;;;3.10;99.90;;;;;;5077324;28;20071;-71
2023/03/16 00:03:43;;;;;;;8.75;3.30;;;3.20;99.90;;;;;;5087551;28;20036;-70
2023/03/16 00:06:09;;;;;;;10.07;2.97;;;3.20;99.90;;;;;;5081422;28;20489;-70
2023/03/16 00:08:35;;;;;;;8.68;3.15;;;3.20;99.90;;;;;;5086281;28;20036;-71
2023/03/16 00:11:01;;;;;;;7.43;2.42;;;3.20;99.90;;;;;;5078871;28;20048;-71
2023/03/16 00:13:28;;;;;;;8.15;2.63;;;3.20;99.90;;;;;;5088510;28;20489;-71
2023/03/16 00:15:59;;;;;;;9.60;2.65;;;3.20;99.90;;;;;;5085152;28;20043;-71
2023/03/16 00:18:27;;;;;;;8.00;2.67;;;3.20;99.90;;;;;;5076040;28;20040;-71
2023/03/16 00:20:55;;;;;;;5.82;2.45;;;3.20;99.90;;;;;;5080996;28;20062;-71
2023/03/16 00:23:27;;;;;;;6.50;2.60;;;3.20;99.90;;;;;;5072593;28;20428;-71
2023/03/16 00:25:54;;;;;;;7.35;2.60;;;3.20;99.90;;;;;;5075993;28;20306;-70
2023/03/16 00:28:21;;;;;;;6.43;2.47;;;3.20;99.90;;;;;;5089532;28;20040;-71
2023/03/16 00:30:46;;;;;;;8.10;2.60;;;3.20;99.90;;;;;;5078487;28;20041;-71
2023/03/16 00:33:12;;;;;;;7.32;2.80;;;3.20;99.90;;;;;;5087696;28;20043;-71
2023/03/16 00:35:38;;;;;;;8.45;2.40;;;3.20;99.90;;;;;;5087450;28;20084;-71
2023/03/16 00:38:03;;;;;;;5.75;2.55;;;3.20;99.90;;;;;;5088644;28;20119;-71
2023/03/16 00:40:29;;;;;;;12.40;3.10;;;3.20;99.90;;;;;;5091989;28;20048;-71
2023/03/16 00:42:55;;;;;;;8.95;2.72;;;3.20;99.90;;;;;;5089789;28;20040;-71
2023/03/16 00:45:22;;;;;;;9.43;2.95;;;3.20;99.90;;;;;;5091980;28;20062;-71
2023/03/16 00:47:48;;;;;;;12.65;2.90;;;3.20;99.90;;;;;;5090913;28;20089;-70
2023/03/16 00:50:14;;;;;;;8.45;2.72;;;3.20;99.90;;;;;;5083759;28;20389;-71
2023/03/16 00:52:41;;;;;;;9.10;2.95;;;3.20;99.90;;;;;;5084581;28;20048;-71
2023/03/16 00:55:08;;;;;;;7.85;3.25;;;3.30;99.90;;;;;;5087633;28;20081;-71
2023/03/16 00:57:33;;;;;;;10.95;2.65;;;3.30;99.90;;;;;;5088402;28;20083;-72
2023/03/16 01:00:01;;;;;;;8.63;2.90;;;3.30;99.90;;;;;;5074770;28;20087;-71
2023/03/16 01:02:26;;;;;;;13.63;3.05;;;3.30;99.90;;;;;;5080302;28;20051;-71
2023/03/16 01:04:53;;;;;;;8.27;2.53;;;3.30;99.90;;;;;;5082673;28;20430;-71
2023/03/16 01:07:20;;;;;;;7.82;3.15;;;3.30;99.90;;;;;;5087114;28;20051;-72
2023/03/16 01:09:46;;;;;;;6.45;2.60;;;3.30;99.90;;;;;;5084654;28;20378;-71
2023/03/16 01:12:15;;;;;;;6.25;2.60;;;3.40;99.90;;;;;;5080444;28;20052;-71
2023/03/16 01:14:41;;;;;;;5.97;2.92;;;3.30;99.90;;;;;;5074734;28;20091;-71
2023/03/16 01:17:08;;;;;;;7.15;2.60;;;3.40;99.90;;;;;;5079663;28;20547;-71
2023/03/16 01:19:36;;;;;;;6.70;3.10;;;3.40;99.90;;;;;;5071487;28;20500;-72
2023/03/16 01:22:06;;;;;;;8.95;2.88;;;3.40;99.90;;;;;;5082112;28;20052;-71
2023/03/16 01:24:33;;;;;;;9.85;2.75;;;3.40;99.90;;;;;;5086535;28;20063;-72
2023/03/16 01:26:59;;;;;;;5.57;2.90;;;3.40;99.90;;;;;;5081878;28;20048;-71
2023/03/16 01:29:25;;;;;;;8.48;2.50;;;3.40;99.90;;;;;;5081602;28;20048;-71
2023/03/16 01:31:50;;;;;;;6.90;2.95;;;3.40;99.90;;;;;;5084542;28;20485;-72
2023/03/16 01:34:17;;;;;;;12.70;3.03;;;3.40;99.90;;;;;;5079976;28;20351;-71
2023/03/16 01:36:46;;;;;;;8.18;2.90;;;3.50;99.90;;;;;;5089928;28;20044;-72
2023/03/16 01:39:13;;;;;;;7.68;2.65;;;3.50;99.90;;;;;;5075338;28;20044;-71
2023/03/16 01:41:40;;;;;;;7.82;3.05;;;3.40;99.90;;;;;;5074577;28;20044;-71
2023/03/16 01:44:11;;;;;;;7.03;2.77;;;3.50;99.90;;;;;;5076309;28;20067;-71
2023/03/16 01:46:36;;;;;;;7.30;3.05;;;3.40;99.90;;;;;;5079527;28;20040;-71
2023/03/16 01:49:08;;;;;;;8.60;3.13;;;3.40;99.90;;;;;;5075009;28;20047;-71
2023/03/16 01:51:46;;;;;;;6.18;2.88;;;3.40;99.90;;;;;;5084457;28;20054;-71
2023/03/16 01:54:28;;;;;;;7.05;3.38;;;3.40;99.90;;;;;;5078888;28;20043;-72
2023/03/16 01:57:08;;;;;;;5.47;2.75;;;3.40;99.90;;;;;;5087267;28;20040;-71
2023/03/16 01:59:43;;;;;;;6.35;3.03;;;3.40;99.90;;;;;;5079129;28;20047;-71
2023/03/16 02:02:11;;;;;;;6.80;3.25;;;3.50;99.90;;;;;;5089144;28;20040;-71
2023/03/16 02:05:04;;;;;;;9.63;3.63;;;3.50;99.90;;;;;;5091143;28;20051;-71
2023/03/16 02:07:34;;;;;;;9.18;3.45;;;3.50;99.90;;;;;;5076313;28;20063;-71
2023/03/16 02:10:01;;;;;;;7.97;3.42;;;3.50;99.90;;;;;;5080859;28;20040;-71
2023/03/16 02:12:28;;;;;;;7.47;3.72;;;3.50;99.90;;;;;;5085144;28;20121;-71
2023/03/16 02:14:54;;;;;;;6.47;3.17;;;3.50;99.90;;;;;;5074883;28;20482;-71
2023/03/16 02:17:26;;;;;;;9.80;3.58;;;3.50;99.90;;;;;;5092963;28;20117;-71
2023/03/16 02:20:10;;;;;;;6.82;3.42;;;3.50;99.90;;;;;;5075964;28;20454;-71
2023/03/16 02:22:46;;;;;;;6.00;3.28;;;3.50;99.90;;;;;;5075295;28;20509;-71
2023/03/16 02:25:14;;;;;;;12.57;4.10;;;3.50;99.90;;;;;;5080317;28;20043;-71
2023/03/16 02:27:52;;;;;;;;;;;3.50;99.90;;;;;;5087127;28;20048;-72
2023/03/16 02:30:20;;;;;;;11.55;4.10;;;3.50;99.90;;;;;;5077605;28;19920;-71
2023/03/16 02:32:50;;;;;;;10.40;3.58;;;3.50;99.90;;;;;;5084460;28;20477;-71
2023/03/16 02:35:16;;;;;;;12.75;4.13;;;3.50;99.90;;;;;;5082411;28;20044;-71
2023/03/16 02:37:42;;;;;;;7.15;3.72;;;3.50;99.90;;;;;;5093401;28;20484;-72
2023/03/16 02:40:24;;;;;;;8.15;4.03;;;3.60;99.90;;;;;;5090949;28;20040;-72
2023/03/16 02:42:54;;;;;;;11.63;3.67;;;3.60;99.90;;;;;;5087540;28;20036;-71
2023/03/16 02:45:22;;;;;;;9.98;3.60;;;3.60;99.90;;;;;;5081150;28;20044;-72
2023/03/16 02:47:51;;;;;;;11.63;4.50;;;3.60;99.90;;;;;;5088082;28;20047;-72
2023/03/16 02:50:16;;;;;;;10.20;4.07;;;3.70;99.90;;;;;;5079856;28;20049;-71
2023/03/16 02:52:42;;;;;;;9.90;4.28;;;3.70;99.90;;;;;;5082237;28;20048;-71
2023/03/16 02:55:08;;;;;;;8.90;3.83;;;3.80;99.90;;;;;;5086549;28;20044;-71
2023/03/16 02:57:34;;;;;;;9.98;4.18;;;3.80;99.90;;;;;;5081216;28;20527;-71
2023/03/16 03:00:00;;;;;;;8.13;3.60;;;3.80;99.90;;;;;;5091387;28;20051;-71
2023/03/16 03:02:25;;;;;;;10.95;4.25;;;3.80;99.90;;;;;;5080155;28;20450;-71
2023/03/16 03:04:53;;;;;;;8.63;4.50;;;3.80;99.90;;;;;;5089990;28;20428;-71
2023/03/16 03:07:19;;;;;;;8.43;4.47;;;3.90;99.90;;;;;;5091547;28;20048;-71
2023/03/16 03:09:45;;;;;;;10.18;4.13;;;3.80;99.90;;;;;;5087807;28;20504;-71
2023/03/16 03:12:12;;;;;;;9.35;3.92;;;3.80;99.90;;;;;;5085747;28;20044;-72
2023/03/16 03:14:38;;;;;;;8.73;4.10;;;3.80;99.90;;;;;;5081283;28;20078;-71
2023/03/16 03:17:06;;;;;;;8.55;4.00;;;3.80;99.90;;;;;;5083303;28;20481;-71
2023/03/16 03:19:35;;;;;;;6.43;3.60;;;3.90;99.90;;;;;;5086645;28;20071;-70
2023/03/16 03:22:05;;;;;;;10.25;3.90;;;3.90;99.90;;;;;;5088545;28;20051;-71
2023/03/16 03:24:33;;;;;;;10.75;3.90;;;3.90;99.90;;;;;;5077844;28;20055;-70
2023/03/16 03:27:02;;;;;;;10.57;4.32;;;3.90;99.90;;;;;;5087768;28;20040;-70
2023/03/16 03:29:33;;;;;;;7.18;3.42;;;3.90;99.90;;;;;;5079017;28;20428;-72
2023/03/16 03:32:03;;;;;;;12.80;4.13;;;3.90;99.90;;;;;;5073607;28;20452;-71
2023/03/16 03:34:30;;;;;;;5.70;3.58;;;3.90;99.90;;;;;;5080860;28;20051;-72
2023/03/16 03:36:57;;;;;;;11.05;4.20;;;3.90;99.90;;;;;;5075412;28;20109;-71
2023/03/16 03:39:23;;;;;;;11.10;3.40;;;3.90;99.90;;;;;;5079439;28;20043;-72
2023/03/16 03:41:49;;;;;;;8.55;3.97;;;3.90;99.90;;;;;;5085924;28;20032;-71
2023/03/16 03:44:14;;;;;;;8.45;3.97;;;3.90;99.90;;;;;;5091440;28;20048;-71
2023/03/16 03:46:40;;;;;;;10.63;4.10;;;3.90;99.90;;;;;;5083252;28;20036;-71
2023/03/16 03:49:06;;;;;;;7.82;3.75;;;3.90;99.90;;;;;;5085395;28;20071;-72
2023/03/16 03:51:33;;;;;;;8.70;3.47;;;4.00;99.90;;;;;;5086484;28;20102;-71
2023/03/16 03:53:59;;;;;;;9.00;4.68;;;4.00;99.90;;;;;;5075571;28;20052;-70
2023/03/16 03:56:25;;;;;;;6.95;3.38;;;4.00;99.90;;;;;;5087785;28;20045;-72
2023/03/16 03:58:51;;;;;;;11.20;3.90;;;4.00;99.90;;;;;;5080072;28;20036;-72
2023/03/16 04:01:17;;;;;;;7.32;3.88;;;4.00;99.90;;;;;;5072864;28;20397;-72
2023/03/16 04:03:44;;;;;;;7.53;3.55;;;4.00;99.90;;;;;;5073517;28;20048;-71
2023/03/16 04:06:09;;;;;;;6.68;3.40;;;4.00;99.90;;;;;;5086222;28;20052;-71
2023/03/16 04:08:35;;;;;;;9.60;3.55;;;4.00;99.90;;;;;;5075876;28;20096;-71
2023/03/16 04:11:01;;;;;;;7.28;3.80;;;4.00;99.90;;;;;;5083329;28;20047;-71
2023/03/16 04:13:27;;;;;;;8.00;3.47;;;4.00;99.90;;;;;;5082844;28;20032;-72
2023/03/16 04:15:57;;;;;;;8.13;3.88;;;3.90;99.90;;;;;;5092621;28;20043;-72
2023/03/16 04:18:23;;;;;;;6.55;3.35;;;3.90;99.90;;;;;;5082676;28;20051;-72
2023/03/16 04:20:48;;;;;;;8.80;3.50;;;3.90;99.90;;;;;;5074062;28;20123;-71
2023/03/16 04:23:15;;;;;;;11.55;3.50;;;3.90;99.90;;;;;;5072898;28;20032;-71
2023/03/16 04:25:41;;;;;;;8.05;3.90;;;3.90;99.90;;;;;;5085100;28;20121;-72
2023/03/16 04:28:07;;;;;;;6.25;3.65;;;3.90;99.90;;;;;;5073450;28;20065;-71
2023/03/16 04:30:33;;;;;;;8.45;3.90;;;3.90;99.90;;;;;;5078499;28;20078;-71
2023/03/16 04:32:59;;;;;;;7.50;3.50;;;3.90;99.90;;;;;;5076292;28;20037;-71
2023/03/16 04:35:25;;;;;;;5.78;3.67;;;4.00;99.90;;;;;;5076544;28;20093;-72
2023/03/16 04:37:51;;;;;;;8.02;3.60;;;3.90;99.90;;;;;;5072682;28;20074;-70
2023/03/16 04:40:18;;;;;;;8.00;3.72;;;3.90;99.90;;;;;;5090908;28;20040;-71
2023/03/16 04:42:45;;;;;;;6.88;3.83;;;3.90;99.90;;;;;;5083990;28;20040;-71
2023/03/16 04:45:11;;;;;;;9.37;3.60;;;4.10;99.90;;;;;;5075807;28;20059;-71
2023/03/16 04:47:37;;;;;;;7.70;3.47;;;3.90;99.90;;;;;;5072209;28;20041;-71
2023/03/16 04:50:04;;;;;;;10.60;3.47;;;3.90;99.90;;;;;;5082418;28;20084;-71
2023/03/16 04:52:30;;;;;;;9.85;3.58;;;3.90;99.90;;;;;;5084221;28;20446;-70
2023/03/16 04:54:56;;;;;;;7.07;3.72;;;3.90;99.90;;;;;;5079387;28;20068;-70
2023/03/16 04:57:22;;;;;;;9.20;3.83;;;3.90;99.90;;;;;;5091157;28;20043;-71
2023/03/16 04:59:48;;;;;;;7.97;3.80;;;3.90;99.90;;;;;;5076959;28;20044;-71
2023/03/16 05:02:13;;;;;;;14.60;4.35;;;3.90;99.90;;;;;;5085325;28;20040;-71
2023/03/16 05:04:39;;;;;;;8.85;3.67;;;3.90;99.90;;;;;;5075200;28;20040;-72
2023/03/16 05:07:05;;;;;;;11.80;3.90;;;3.90;99.90;;;;;;5084146;28;20036;-72
2023/03/16 05:09:31;;;;;;;7.35;3.90;;;4.00;99.90;;;;;;5078630;28;20040;-72
2023/03/16 05:11:57;;;;;;;8.23;3.80;;;3.90;99.90;;;;;;5082152;28;20040;-72
2023/03/16 05:14:23;;;;;;;9.80;3.70;;;3.90;99.90;;;;;;5081207;28;20037;-71
2023/03/16 05:16:48;;;;;;;7.65;3.63;;;3.90;99.90;;;;;;5078754;28;20116;-70
2023/03/16 05:19:14;;;;;;;11.30;3.95;;;3.90;99.90;;;;;;5076530;28;20054;-71
2023/03/16 05:21:39;;;;;;;7.68;4.25;;;3.90;99.90;;;;;;5077958;28;20040;-71
2023/03/16 05:24:05;;;;;;;10.02;4.60;;;3.90;99.90;;;;;;5074146;28;20401;-71
2023/03/16 05:26:31;;;;;;;8.57;3.80;;;3.90;99.90;;;;;;5071280;28;20068;-71
2023/03/16 05:28:57;;;;;;;9.60;4.30;;;3.90;99.90;;;;;;5074064;28;20037;-71
2023/03/16 05:31:25;;;;;;;7.88;4.13;;;3.90;99.90;;;;;;5085888;28;20119;-70
2023/03/16 05:33:52;;;;;;;7.90;3.67;;;3.90;99.90;;;;;;5083815;28;20075;-70
2023/03/16 05:36:18;;;;;;;14.82;7.53;;;3.90;99.90;;;;;;5087069;28;20044;-70
2023/03/16 05:38:45;;;;;;;6.60;3.95;;;4.10;99.90;;;;;;5078660;28;20036;-70
2023/03/16 05:41:10;;;;;;;9.13;4.80;;;3.80;99.90;;;;;;5082480;28;20092;-71
2023/03/16 05:43:36;;;;;;;10.80;4.05;;;3.80;99.90;;;;;;5086431;28;20074;-71
2023/03/16 05:46:02;;;;;;;9.38;4.50;;;3.90;99.90;;;;;;5085464;28;20082;-70
2023/03/16 05:48:28;;;;;;;8.15;3.80;;;3.90;99.90;;;;;;5093973;28;20036;-70
2023/03/16 05:50:54;;;;;;;7.10;4.28;;;3.90;99.90;;;;;;5066252;28;20053;-71
2023/03/16 05:53:22;;;;;;;10.25;4.53;;;3.90;99.90;;;;;;5087530;28;20065;-71
2023/03/16 05:55:54;;;;;;;9.25;4.72;;;3.90;99.90;;;;;;5084432;28;20047;-71
2023/03/16 05:58:20;;;;;;;10.20;4.22;;;3.90;99.90;;;;;;5084189;28;20490;-71
2023/03/16 06:00:46;;;;;;;7.80;4.38;;;3.90;99.90;;;;;;5087779;28;20040;-71
2023/03/16 06:03:11;;;;;;;7.95;4.80;;;4.00;99.90;;;;;;5073446;28;20036;-70
2023/03/16 06:05:37;;;;;;;7.38;4.32;;;3.90;99.90;;;;;;5073207;28;20040;-70
2023/03/16 06:08:03;;;;;;;9.55;4.82;;;3.90;99.90;;;;;;5069067;28;20730;-71
2023/03/16 06:10:29;;;;;;;8.68;4.68;;;4.00;99.90;;;;;;5091054;28;20048;-70
2023/03/16 06:12:55;;;;;;;10.52;4.55;;;3.90;99.90;;;;;;5078931;28;20045;-71
2023/03/16 06:15:23;;;;;;;10.07;4.32;;;4.20;99.90;;;;;;5079073;28;20043;-70
2023/03/16 06:17:49;;;;;;;10.27;4.40;;;4.00;99.90;;;;;;5079662;28;20438;-70
2023/03/16 06:20:16;;;;;;;9.45;4.38;;;4.00;99.90;;;;;;5080407;28;20036;-70
2023/03/16 06:22:42;;;;;;;15.13;5.30;;;4.00;99.90;;;;;;5082917;28;20052;-71
2023/03/16 06:25:10;;;;;;;7.20;3.88;;;4.00;99.90;;;;;;5090066;28;20032;-70
2023/03/16 06:27:37;;;;;;;10.05;4.25;;;4.00;99.90;;;;;;5081244;28;20067;-71
2023/03/16 06:30:05;;;;;;;11.60;4.95;;;4.00;99.90;;;;;;5080131;28;20051;-70
2023/03/16 06:32:31;;;;;;;;;;;4.00;99.90;;;;;;5085221;28;20486;-70
2023/03/16 06:35:00;;;;;;;9.05;4.70;;;4.00;99.90;;;;;;5076428;28;19927;-72
2023/03/16 06:37:27;;;;;;;9.35;4.38;;;4.00;99.90;;;;;;5082970;28;20105;-70
2023/03/16 06:39:53;;;;;;;8.65;4.38;;;4.10;99.90;;;;;;5076871;28;20465;-70
2023/03/16 06:42:18;;;;;;;8.38;4.75;;;4.10;99.90;;;;;;5077193;28;20075;-71
2023/03/16 06:44:44;;;;;;;7.82;4.10;;;4.50;99.90;;;;;;5075690;28;20068;-71
2023/03/16 06:47:10;;;;;;;9.18;5.07;;;4.10;99.90;;;;;;5080723;28;20040;-71
2023/03/16 06:49:36;;;;;;;8.70;4.32;;;4.10;99.90;;;;;;5086995;28;20060;-71
2023/03/16 06:52:02;;;;;;;8.70;4.57;;;4.20;99.90;;;;;;5079820;28;20051;-71
2023/03/16 06:54:28;;;;;;;14.55;4.70;;;4.20;99.90;;;;;;5086455;28;20070;-71
2023/03/16 06:56:54;;;;;;;12.30;4.13;;;4.20;99.90;;;;;;5073170;28;20086;-71
2023/03/16 06:59:20;;;;;;;8.10;4.38;;;4.20;99.90;;;;;;5074721;28;20041;-71
2023/03/16 07:01:46;;;;;;;11.55;4.72;;;4.30;99.90;;;;;;5077891;28;20119;-71
2023/03/16 07:04:11;;;;;;;6.43;4.32;;;4.30;99.90;;;;;;5073869;28;20128;-71
2023/03/16 07:06:37;;;;;;;10.20;4.78;;;4.30;99.90;;;;;;5093018;28;20113;-71
2023/03/16 07:09:04;;;;;;;6.90;4.28;;;4.30;99.90;;;;;;5082441;28;20455;-71
2023/03/16 07:11:31;;;;;;;9.93;4.38;;;4.40;99.90;;;;;;5075778;28;20396;-71
2023/03/16 07:13:57;;;;;;;7.65;4.40;;;4.40;99.90;;;;;;5073476;28;20091;-71
2023/03/16 07:16:23;;;;;;;10.23;4.53;;;4.40;99.90;;;;;;5071251;28;20459;-71
2023/03/16 07:18:48;;;;;;;10.18;4.45;;;4.50;99.90;;;;;;5074286;28;20132;-71
2023/03/16 07:21:14;;;;;;;7.15;4.13;;;4.50;99.90;;;;;;5073893;28;20127;-71
2023/03/16 07:23:40;;;;;;;9.38;4.00;;;4.50;99.90;;;;;;5080962;28;20090;-71
2023/03/16 07:26:07;;;;;;;9.35;4.60;;;4.50;99.90;;;;;;5075288;28;20444;-71
2023/03/16 07:28:33;;;;;;;6.93;4.15;;;4.60;99.90;;;;;;5077189;28;20056;-71
2023/03/16 07:30:59;;;;;;;12.63;4.35;;;4.70;99.90;;;;;;5079829;28;20035;-70
2023/03/16 07:33:24;;;;;;;7.03;3.95;;;4.60;99.90;;;;;;5093210;28;20043;-71
2023/03/16 07:35:50;;;;;;;7.45;3.70;;;4.70;99.90;;;;;;5084892;28;20032;-71
2023/03/16 07:38:16;;;;;;;7.72;4.93;;;4.70;99.90;;;;;;5089087;28;20055;-71
2023/03/16 07:40:42;;;;;;;9.35;3.95;;;4.70;99.90;;;;;;5083347;28;20469;-70
2023/03/16 07:43:07;;;;;;;9.10;4.22;;;4.80;99.90;;;;;;5088464;28;20367;-70
2023/03/16 07:45:33;;;;;;;10.63;4.90;;;4.70;99.90;;;;;;5076853;28;20032;-70
2023/03/16 07:47:59;;;;;;;7.15;4.05;;;4.80;99.90;;;;;;5078739;28;20039;-70
2023/03/16 07:50:25;;;;;;;11.23;4.40;;;4.80;99.90;;;;;;5080524;28;20547;-70
2023/03/16 07:52:51;;;;;;;10.50;4.75;;;4.90;99.90;;;;;;5098042;28;20077;-70
2023/03/16 07:55:17;;;;;;;9.60;4.47;;;4.90;99.90;;;;;;5078663;28;20036;-71
2023/03/16 07:57:46;;;;;;;8.30;4.38;;;5.00;99.90;;;;;;5084639;28;20059;-70
2023/03/16 08:00:13;;;;;;;8.68;4.13;;;5.00;99.90;;;;;;5084228;28;20051;-69
2023/03/16 08:02:39;;;;;;;8.63;4.03;;;5.00;99.90;;;;;;5075791;28;20077;-69
2023/03/16 08:05:04;;;;;;;8.38;4.47;;;5.10;99.90;;;;;;5081133;28;20144;-69
2023/03/16 08:07:30;;;;;;;6.53;4.03;;;5.20;99.90;;;;;;5072798;28;20040;-68
2023/03/16 08:09:56;;;;;;;10.80;4.18;;;5.20;99.90;;;;;;5079044;28;20040;-69
2023/03/16 08:12:22;;;;;;;9.32;4.15;;;5.30;99.90;;;;;;5072957;28;20043;-69
2023/03/16 08:14:48;;;;;;;9.68;4.30;;;5.30;99.90;;;;;;5073321;28;20397;-69
2023/03/16 08:17:13;;;;;;;5.53;3.90;;;5.40;99.90;;;;;;5082492;28;20048;-69
2023/03/16 08:19:39;;;;;;;6.68;4.18;;;5.50;99.90;;;;;;5091985;28;20516;-69
2023/03/16 08:22:05;;;;;;;6.32;3.97;;;5.50;99.90;;;;;;5074453;28;20126;-69
2023/03/16 08:24:31;;;;;;;7.43;4.20;;;5.50;99.90;;;;;;5092106;28;20059;-69
2023/03/16 08:26:57;;;;;;;10.07;4.15;;;5.50;99.90;;;;;;5092124;28;20036;-69
2023/03/16 08:29:24;;;;;;;10.23;4.40;;;5.50;99.90;;;;;;5092964;28;20044;-69
2023/03/16 08:31:53;;;;;;;9.57;4.65;;;5.50;99.90;;;;;;5091493;28;20047;-69
2023/03/16 08:34:19;;;;;;;13.88;4.53;;;5.80;99.90;;;;;;5091620;28;20477;-69
2023/03/16 08:36:44;;;;;;;10.30;4.55;;;5.50;99.90;;;;;;5091980;28;20119;-68
2023/03/16 08:39:10;;;;;;;8.05;4.28;;;5.40;99.90;;;;;;5072659;28;20137;-68
2023/03/16 08:41:36;;;;;;;8.43;4.32;;;5.40;99.90;;;;;;5073159;28;20239;-69
2023/03/16 08:44:02;;;;;;;9.73;4.90;;;5.40;99.90;;;;;;5073864;28;20125;-70
2023/03/16 08:46:28;;;;;;;8.13;4.45;;;5.40;99.90;;;;;;5074542;28;20040;-69
2023/03/16 08:48:56;;;;;;;11.40;4.68;;;5.40;99.90;;;;;;5075981;28;20037;-69
2023/03/16 08:51:22;;;;;;;7.90;4.70;;;5.40;99.90;;;;;;5083419;28;20459;-70
2023/03/16 08:53:47;;;;;;;9.20;4.43;;;5.40;99.90;;;;;;5082721;28;20057;-70
2023/03/16 08:56:13;;;;;;;9.43;4.80;;;5.40;99.90;;;;;;5074257;28;20036;-70
2023/03/16 08:58:44;;;;;;;8.07;4.25;;;5.40;99.90;;;;;;5083096;28;20048;-70
2023/03/16 09:01:16;;;;;;;10.98;4.57;;;5.40;99.90;;;;;;5075116;28;20043;-69
2023/03/16 09:03:44;;;;;;;9.25;4.80;;;5.40;99.90;;;;;;5076365;28;20036;-71
2023/03/16 09:06:12;;;;;;;8.52;4.65;;;5.50;99.90;;;;;;5090859;28;20049;-70
2023/03/16 09:08:39;;;;;;;9.45;5.18;;;5.50;99.90;;;;;;5073475;28;20058;-68
2023/03/16 09:11:08;;;;;;;7.38;4.22;;;5.50;99.90;;;;;;5076126;28;20047;-69
2023/03/16 09:13:35;;;;;;;9.98;4.35;;;5.50;99.90;;;;;;5092503;28;20036;-69
2023/03/16 09:16:00;;;;;;;9.38;4.43;;;5.50;99.90;;;;;;5077955;28;20113;-70
2023/03/16 09:18:26;;;;;;;8.98;5.35;;;5.50;99.90;;;;;;5075696;28;20123;-69
2023/03/16 09:21:00;;;;;;;6.03;4.10;;;5.50;99.90;;;;;;5072519;28;20113;-68
2023/03/16 09:23:27;;;;;;;9.35;4.13;;;5.50;99.90;;;;;;5071701;28;20052;-70
2023/03/16 09:25:55;;;;;;;9.70;4.43;;;5.50;99.90;;;;;;5076920;28;20045;-70
2023/03/16 09:28:21;;;;;;;11.13;4.35;;;5.50;99.90;;;;;;5071775;28;20044;-69
2023/03/16 09:30:48;;;;;;;10.25;4.93;;;5.50;99.90;;;;;;5072840;28;20048;-70
2023/03/16 09:33:14;;;;;;;6.77;4.67;;;5.40;99.90;;;;;;5072442;28;20048;-71
2023/03/16 09:35:40;;;;;;;10.30;5.10;;;5.40;99.90;;;;;;5073376;28;20282;-68
2023/03/16 09:38:06;;;;;;;8.43;4.70;;;5.40;99.90;;;;;;5080256;28;20048;-69
2023/03/16 09:40:32;;;;;;;10.77;5.53;;;5.50;99.90;;;;;;5081124;28;20048;-69
2023/03/16 09:43:16;;;;;;;8.20;5.13;;;5.50;99.90;;;;;;5074999;28;20040;-69
2023/03/16 09:46:10;;;;;;;9.30;4.90;;;5.50;99.90;;;;;;5090266;28;20393;-68
2023/03/16 09:48:37;;;;;;;8.93;5.40;;;5.60;99.90;;;;;;5073850;28;20151;-68
2023/03/16 09:51:06;;;;;;;8.48;4.93;;;5.70;99.90;;;;;;5084898;28;20482;-69
2023/03/16 09:53:39;;;;;;;9.82;5.10;;;5.90;99.90;;;;;;5093673;28;20067;-70
2023/03/16 09:56:21;;;;;;;8.90;4.78;;;6.00;99.90;;;;;;5088082;28;20064;-72
2023/03/16 09:58:46;;;;;;;10.38;5.65;;;6.20;99.90;;;;;;5093117;28;20048;-70
2023/03/16 10:01:29;;;;;;;10.88;6.13;;;6.30;99.90;;;;;;5086047;28;20048;-72
2023/03/16 10:04:08;;;;;;;8.15;4.80;;;6.30;99.90;;;;;;5078488;28;20040;-70
2023/03/16 10:06:37;;;;;;;;;;;6.30;99.90;;;;;;5088870;28;20059;-70
2023/03/16 10:09:41;;;;;;;9.93;5.25;;;6.30;99.90;;;;;;5085014;28;19954;-69
2023/03/16 10:12:08;;;;;;;11.43;5.20;;;6.30;99.90;;;;;;5084144;28;20485;-71
2023/03/16 10:15:07;;;;;;;12.27;5.22;;;6.20;99.90;;;;;;5076675;28;20036;-70
2023/03/16 10:17:55;;;;;;;11.32;5.18;;;6.20;99.90;;;;;;5086522;28;20051;-71
2023/03/16 10:20:23;;;;;;;13.88;4.97;;;6.20;99.90;;;;;;5082338;28;20076;-70
2023/03/16 10:22:51;;;;;;;10.10;5.30;;;6.20;99.90;;;;;;5084990;28;20051;-70
2023/03/16 10:25:26;;;;;;;13.10;5.07;;;6.20;99.90;;;;;;5086296;28;20115;-71
2023/03/16 10:27:53;;;;;;;9.73;4.78;;;6.30;99.90;;;;;;5077667;28;20040;-71
2023/03/16 10:30:27;;;;;;;7.18;4.72;;;6.30;99.90;;;;;;5086989;28;20033;-71
2023/03/16 10:32:54;;;;;;;10.15;5.03;;;6.30;99.90;;;;;;5082952;28;20125;-71
2023/03/16 10:35:44;;;;;;;7.22;4.85;;;6.30;99.90;;;;;;5085388;28;20033;-70
2023/03/16 10:38:41;;;;;;;8.43;4.93;;;6.30;99.90;;;;;;5082159;28;20037;-71
2023/03/16 10:41:22;;;;;;;11.77;5.28;;;6.20;99.90;;;;;;5083750;28;20036;-69
2023/03/16 10:43:56;;;;;;;11.63;5.88;;;6.20;99.90;;;;;;5085097;28;20406;-70
2023/03/16 10:46:23;;;;;;;9.20;5.10;;;6.20;99.90;;;;;;5092456;28;20032;-70
2023/03/16 10:49:00;;;;;;;7.80;4.85;;;6.10;99.90;;;;;;5079163;28;20123;-72
2023/03/16 10:51:36;;;;;;;14.07;5.18;;;6.10;99.90;;;;;;5079084;28;20044;-70
2023/03/16 10:54:15;;;;;;;9.65;5.20;;;6.30;99.90;;;;;;5091904;28;20122;-71
2023/03/16 10:56:41;;;;;;;;;;;6.10;99.90;;;;;;5086441;28;20066;-71
2023/03/16 10:59:26;;;;;;;12.35;5.07;;;6.10;99.90;;;;;;5091384;28;19920;-71
2023/03/16 11:01:52;;;;;;;9.10;4.63;;;6.10;99.90;;;;;;5087258;28;20382;-71
2023/03/16 11:04:19;;;;;;;9.98;5.45;;;6.10;99.90;;;;;;5085500;28;20143;-71
2023/03/16 11:06:55;;;;;;;11.93;5.25;;;6.10;99.90;;;;;;5088715;28;20123;-71
2023/03/16 11:09:26;;;;;;;9.13;4.93;;;6.10;99.90;;;;;;5086063;28;20052;-70
2023/03/16 11:11:52;;;;;;;10.63;5.07;;;6.20;99.90;;;;;;5094400;28;20122;-70
2023/03/16 11:14:22;;;;;;;10.35;5.07;;;6.20;99.90;;;;;;5078852;28;20598;-70
2023/03/16 11:17:10;;;;;;;12.88;6.95;;;6.20;99.90;;;;;;5082525;28;20048;-70
2023/03/16 11:19:44;;;;;;;19.25;8.02;;;6.10;99.90;;;;;;5087410;28;20073;-71
2023/03/16 11:22:15;;;;;;;14.68;7.80;;;6.10;99.90;;;;;;5094137;28;20489;-70
2023/03/16 11:25:01;;;;;;;9.90;4.90;;;6.20;99.90;;;;;;5090303;28;20066;-70
2023/03/16 11:28:05;;;;;;;8.75;4.82;;;6.30;99.90;;;;;;5092122;28;20509;-70
2023/03/16 11:30:41;;;;;;;9.68;5.00;;;6.30;99.90;;;;;;5087424;28;20516;-71
2023/03/16 11:33:12;;;;;;;6.97;4.30;;;6.40;99.90;;;;;;5074683;28;20052;-70
2023/03/16 11:35:56;;;;;;;7.15;4.47;;;7.50;99.90;;;;;;5080953;28;20044;-71
2023/03/16 11:38:47;;;;;;;9.27;4.90;;;6.60;99.90;;;;;;5076892;28;20079;-71
2023/03/16 11:41:27;;;;;;;7.15;4.35;;;6.70;99.90;;;;;;5083184;28;20048;-71
2023/03/16 11:44:00;;;;;;;7.43;3.88;;;6.80;99.90;;;;;;5076140;28;20045;-71
2023/03/16 11:46:40;;;;;;;7.88;4.75;;;6.90;99.90;;;;;;5079928;28;20058;-71
2023/03/16 11:49:38;;;;;;;10.55;4.40;;;6.90;99.90;;;;;;5082708;28;20079;-71
2023/03/16 11:52:13;;;;;;;8.63;4.80;;;7.00;99.90;;;;;;5092494;28;20045;-71
2023/03/16 11:55:03;;;;;;;8.80;4.40;;;7.00;99.90;;;;;;5091370;28;20470;-71
2023/03/16 11:57:49;;;;;;;11.40;4.85;;;7.00;99.90;;;;;;5093000;28;20473;-72
2023/03/16 12:00:21;;;;;;;9.35;3.67;;;7.00;99.90;;;;;;5080604;28;20045;-71
2023/03/16 12:02:57;;;;;;;6.38;3.92;;;7.00;99.90;;;;;;5074880;28;20175;-73
2023/03/16 12:05:41;;;;;;;8.40;4.20;;;7.10;99.90;;;;;;5093474;28;20066;-71
2023/03/16 12:08:17;;;;;;;7.35;4.32;;;7.10;99.90;;;;;;5080157;28;20044;-70
2023/03/16 12:10:48;;;;;;;5.80;3.97;;;7.20;99.90;;;;;;5093205;28;20044;-71
2023/03/16 12:13:33;;;;;;;11.57;4.80;;;7.30;99.90;;;;;;5075550;28;20634;-71
2023/03/16 12:16:14;;;;;;;8.90;4.45;;;7.40;99.90;;;;;;5073673;28;20051;-68
2023/03/16 12:18:54;;;;;;;10.00;4.07;;;7.50;99.90;;;;;;5050659;28;20055;-69
2023/03/16 12:21:35;;;;;;;8.40;4.00;;;7.70;99.90;;;;;;5089318;28;20086;-69
2023/03/16 12:24:05;;;;;;;6.53;4.07;;;7.80;99.90;;;;;;5087502;28;20111;-71
2023/03/16 12:26:35;;;;;;;11.60;4.00;;;8.00;99.90;;;;;;5093006;28;20040;-71
2023/03/16 12:29:43;;;;;;;7.00;3.97;;;8.10;99.90;;;;;;5077815;28;20183;-70
2023/03/16 12:32:35;;;;;;;8.27;4.05;;;8.20;99.90;;;;;;5071994;28;20059;-70
2023/03/16 12:35:04;;;;;;;11.73;4.40;;;8.30;99.90;;;;;;5094621;28;20068;-70
2023/03/16 12:37:41;;;;;;;7.75;3.88;;;8.40;99.90;;;;;;5092645;28;20050;-70
2023/03/16 12:40:07;;;;;;;13.02;3.90;;;8.50;99.90;;;;;;5080380;28;20509;-69
2023/03/16 12:43:10;;;;;;;12.13;3.90;;;8.50;99.90;;;;;;5085181;28;20050;-69
2023/03/16 12:45:41;;;;;;;6.82;3.67;;;8.60;99.90;;;;;;5090507;28;20048;-71
2023/03/16 12:48:15;;;;;;;7.15;4.30;;;8.80;99.90;;;;;;5091476;28;20405;-70
2023/03/16 12:50:54;;;;;;;7.15;3.83;;;8.90;99.90;;;;;;5073500;28;20083;-70
2023/03/16 12:53:26;;;;;;;;;;;9.00;99.90;;;;;;5072776;28;20036;-71
2023/03/16 12:55:52;;;;;;;10.27;4.00;;;9.10;99.90;;;;;;5071821;28;19920;-71
2023/03/16 12:58:17;;;;;;;8.27;4.22;;;9.10;99.90;;;;;;5089360;28;20051;-71
2023/03/16 13:00:54;;;;;;;6.63;3.40;;;9.20;99.90;;;;;;5092423;28;20039;-70
2023/03/16 13:03:22;;;;;;;6.75;3.50;;;9.00;99.90;;;;;;5087309;28;20059;-70
2023/03/16 13:05:57;;;;;;;6.30;3.88;;;9.00;99.90;;;;;;5092371;28;20059;-70
2023/03/16 13:08:23;;;;;;;9.05;3.92;;;9.00;99.90;;;;;;5074648;28;20045;-70